Mesa.AZweather.com - Mesa, AZ
   Red Mountain Frwy and University Dr., El 1518 ft.
      --- Wednesday  June 12, 2019 ---
 
 High Temperature ..  110F at 15:40
 Low Temperature ...  75F at 03:40
 
 High Humidity .....  24% at 00:00
 Low Humidity ......  6% at 13:26
 
 Rainfall Total ....  0.00 in.
 
 High Wind Speed ... ---
                     
 
 High Barometer ....  29.94 at 07:28
 Low Barometer .....  29.79 at 16:54
 
Dew Point    High .... 39   Low ..... 23
 
 
 Time   Temp  Humi  Rain     Baro  DewPt  Wind
00:00,  79F, 24%, 0.00 in, 29.89, 39F, ---
00:30,  79F, 23%, 0.00 in, 29.89, 38F, ---
01:00,  79F, 23%, 0.00 in, 29.89, 38F, ---
01:30,  78F, 23%, 0.00 in, 29.89, 38F, ---
02:00,  78F, 23%, 0.00 in, 29.89, 38F, ---
02:30,  77F, 23%, 0.00 in, 29.88, 36F, ---
03:00,  76F, 22%, 0.00 in, 29.88, 34F, ---
03:30,  76F, 21%, 0.00 in, 29.88, 33F, ---
04:00,  75F, 22%, 0.00 in, 29.89, 34F, ---
04:30,  75F, 23%, 0.00 in, 29.89, 35F, ---
05:00,  76F, 24%, 0.00 in, 29.90, 36F, ---
05:30,  76F, 23%, 0.00 in, 29.91, 35F, ---
06:00,  76F, 23%, 0.00 in, 29.92, 35F, ---
06:30,  78F, 24%, 0.00 in, 29.92, 39F, ---
07:00,  83F, 20%, 0.00 in, 29.93, 37F, ---
07:30,  87F, 17%, 0.00 in, 29.93, 38F, ---
08:00,  91F, 15%, 0.00 in, 29.94, 37F, ---
08:30,  93F, 13%, 0.00 in, 29.94, 35F, ---
09:00,  94F, 12%, 0.00 in, 29.94, 33F, ---
09:30,  96F, 10%, 0.00 in, 29.94, 31F, ---
10:00,  95F, 11%, 0.00 in, 29.93, 32F, ---
10:30,  100F, 10%, 0.00 in, 29.93, 34F, ---
11:00,  103F, 9%, 0.00 in, 29.92, 33F, ---
11:30,  104F, 8%, 0.00 in, 29.92, 31F, ---
12:00,  105F, 8%, 0.00 in, 29.91, 32F, ---
12:30,  106F, 7%, 0.00 in, 29.90, 29F, ---
13:00,  106F, 7%, 0.00 in, 29.89, 29F, ---
13:30,  107F, 6%, 0.00 in, 29.88, 27F, ---
14:00,  108F, 7%, 0.00 in, 29.87, 30F, ---
14:30,  108F, 6%, 0.00 in, 29.85, 27F, ---
15:00,  109F, 6%, 0.00 in, 29.84, 28F, ---
15:30,  109F, 6%, 0.00 in, 29.83, 28F, ---
16:00,  110F, 6%, 0.00 in, 29.81, 28F, ---
16:30,  110F, 6%, 0.00 in, 29.81, 28F, ---
17:00,  110F, 6%, 0.00 in, 29.80, 28F, ---
17:30,  109F, 6%, 0.00 in, 29.79, 28F, ---
18:00,  108F, 6%, 0.00 in, 29.79, 27F, ---
18:30,  107F, 6%, 0.00 in, 29.79, 27F, ---
19:00,  106F, 6%, 0.00 in, 29.80, 25F, ---
19:30,  102F, 7%, 0.00 in, 29.79, 27F, ---
20:00,  97F, 10%, 0.00 in, 29.80, 31F, ---
20:30,  92F, 12%, 0.00 in, 29.80, 32F, ---
21:00,  89F, 13%, 0.00 in, 29.80, 32F, ---
21:30,  87F, 14%, 0.00 in, 29.81, 33F, ---
22:00,  85F, 15%, 0.00 in, 29.81, 32F, ---
22:30,  83F, 15%, 0.00 in, 29.82, 30F, ---
23:00,  82F, 15%, 0.00 in, 29.82, 30F, ---
23:30,  81F, 16%, 0.00 in, 29.81, 30F, ---
23:59,  80F, 16%, 0.00 in, 29.81, 30F, ---